High temp

Not for real navigation. The accuracy of this data is not assured See disclaimer for more information



ICAO NAME COUNTRY WIND Kt GUST Kt VIS m TEMP/DEW C BARO METAR
KEED NEEDLES AIRPORT CA United States 0 0 9999 38/-9 29.83 KEED 252356Z AUTO 00000KT 10SM CAVOK 38/M09 A2983 RMK AO2 SLP067 T03831094 10394 20333 56024
KTRM Palm Springs, Jacqueline Cochr CA United States 10 0 9999 38/-4 29.78 KTRM 252352Z AUTO 14010KT 10SM CAVOK 38/M04 A2978 RMK AO2 SLP086 T03831044 10394 20350 56019
KIFP Bullhead City, Laughlin/Bullhe AZ United States 7 0 9999 38/-9 29.81 KIFP 252355Z 23007KT 10SM CAVOK 38/M09 A2981 RMK AO2
KGEU Glendale, Glendale Municipal A AZ United States 6 0 16000 37/-9 29.87 KGEU 252247Z 23006KT 10SM FEW250 37/M09 A2987
KPSP PALM SPRINGS REGIONAL AIRPORT CA United States 8 22 9999 37/-1 29.84 KPSP 252353Z 31008G22KT 10SM CAVOK 37/M01 A2984 RMK AO2 SLP101 T03671011 10383 20339 56017

Show more